Time;durP1;ratioP1;P1;durP2;ratioP2;P2;SDS_P1;SDS_P2;PMS_P1;PMS_P2;Temp;Humidity;BMP_temperature;BMP_pressure;BME280_temperature;BME280_humidity;BME280_pressure;Samples;Min_cycle;Max_cycle;Signal;HPM_P1;HPM_P2
2022/03/12 00:00:50;;;;;;;23.87;13.37;;;;;;;-145.18;79.82;47314.81;4912628;29;20337;-66
2022/03/12 00:03:16;;;;;;;21.47;11.73;;;;;;;-145.18;80.48;47299.19;4914124;29;20036;-66
2022/03/12 00:05:52;;;;;;;22.17;13.00;;;;;;;-145.18;80.84;47318.72;4912645;29;20542;-66
2022/03/12 00:08:31;;;;;;;21.52;12.57;;;;;;;-145.18;80.90;47308.97;4913682;29;20072;-66
2022/03/12 00:10:56;;;;;;;23.87;12.67;;;;;;;-145.18;82.15;47310.91;4912895;29;20044;-66
2022/03/12 00:13:22;;;;;;;25.90;12.67;;;;;;;-145.18;82.05;47316.78;4913498;29;20263;-66
2022/03/12 00:15:51;;;;;;;25.73;12.70;;;;;;;-145.18;80.50;47297.22;4912563;29;20052;-66
2022/03/12 00:18:19;;;;;;;23.40;12.90;;;;;;;-145.18;80.93;47312.88;4913130;29;20297;-66
2022/03/12 00:20:48;;;;;;;20.60;12.10;;;;;;;-145.18;79.51;47322.63;4912662;29;20277;-66
2022/03/12 00:23:18;;;;;;;24.97;12.83;;;;;;;-145.18;80.20;47308.97;4913059;29;20355;-66
2022/03/12 00:25:44;;;;;;;29.57;13.90;;;;;;;-145.18;80.93;47308.97;4896122;29;20283;-66
2022/03/12 00:28:12;;;;;;;24.87;12.77;;;;;;;-145.18;80.57;47316.78;4912855;29;20335;-66
2022/03/12 00:30:38;;;;;;;22.20;12.67;;;;;;;-145.18;81.43;47307.00;4912959;29;20278;-66
2022/03/12 00:33:04;;;;;;;22.07;11.90;;;;;;;-145.18;82.18;47301.16;4913139;29;20297;-66
2022/03/12 00:35:31;;;;;;;25.53;13.93;;;;;;;-145.18;82.06;47316.78;4913017;29;20523;-66
2022/03/12 00:37:56;;;;;;;23.73;12.90;;;;;;;-145.18;82.81;47299.19;4912128;29;20347;-66
2022/03/12 00:40:22;;;;;;;21.43;11.67;;;;;;;-145.18;82.59;47305.06;4912665;29;20282;-66
2022/03/12 00:42:47;;;;;;;21.73;11.97;;;;;;;-145.18;81.74;47303.09;4911717;29;20433;-66
2022/03/12 00:45:13;;;;;;;20.60;13.50;;;;;;;-145.18;82.34;47287.47;4880095;29;20032;-66
2022/03/12 00:47:38;;;;;;;24.70;12.40;;;;;;;-145.18;81.60;47295.28;4912636;29;20040;-66
2022/03/12 00:50:05;;;;;;;22.17;12.60;;;;;;;-145.18;83.22;47312.88;4912053;29;20036;-66
2022/03/12 00:52:31;;;;;;;20.57;12.47;;;;;;;-145.18;83.57;47305.06;4912395;29;20040;-66
2022/03/12 00:54:56;;;;;;;23.23;12.43;;;;;;;-145.18;82.93;47316.78;4895630;29;20279;-66
2022/03/12 00:57:22;;;;;;;22.07;12.63;;;;;;;-145.18;83.96;47314.81;4912060;29;20044;-66
2022/03/12 00:59:47;;;;;;;21.37;12.80;;;;;;;-145.18;85.12;47307.00;4912087;29;20036;-66
2022/03/12 01:02:16;;;;;;;23.23;11.57;;;;;;;-145.18;86.51;47316.78;4895673;29;20051;-66
2022/03/12 01:04:42;;;;;;;22.67;12.93;;;;;;;-145.18;86.72;47318.72;4912026;29;20051;-66
2022/03/12 01:07:10;;;;;;;21.40;12.43;;;;;;;-145.18;86.88;47330.44;4912095;29;20354;-66
2022/03/12 01:09:36;;;;;;;23.93;12.00;;;;;;;-145.18;86.72;47320.69;4912159;29;20371;-66
2022/03/12 01:12:02;;;;;;;21.47;12.67;;;;;;;-145.18;87.62;47342.16;4911791;29;20373;-66
2022/03/12 01:14:29;;;;;;;21.83;12.53;;;;;;;-145.18;88.13;47297.22;4912421;29;20054;-66
2022/03/12 01:16:57;;;;;;;21.97;13.03;;;;;;;-145.18;93.39;47316.78;4911465;29;20444;-66
2022/03/12 01:19:23;;;;;;;24.67;12.93;;;;;;;-145.18;91.76;47322.63;4911894;29;20282;-66
2022/03/12 01:21:48;;;;;;;22.63;12.43;;;;;;;-145.18;91.76;47308.97;4912032;29;20309;-66
2022/03/12 01:24:13;;;;;;;21.33;13.23;;;;;;;-145.18;94.75;47320.69;4911578;29;20068;-66
2022/03/12 01:26:40;;;;;;;21.10;12.40;;;;;;;-145.18;92.20;47310.91;4911804;29;20088;-66
2022/03/12 01:29:07;;;;;;;21.33;13.07;;;;;;;-145.18;92.85;47320.69;4911877;29;20411;-66
2022/03/12 01:31:34;;;;;;;21.93;12.50;;;;;;;-145.18;93.76;47312.88;4911450;29;21174;-66
2022/03/12 01:34:00;;;;;;;21.33;12.20;;;;;;;-145.18;95.91;47324.59;4911754;29;20831;-66
2022/03/12 01:36:26;;;;;;;19.27;12.43;;;;;;;-145.18;98.07;47324.59;4911213;29;20267;-66
2022/03/12 01:38:53;;;;;;;27.17;12.97;;;;;;;-145.18;98.00;47316.78;4895183;29;20355;-66
2022/03/12 01:41:25;;;;;;;22.27;13.10;;;;;;;-145.18;97.51;47314.81;4911373;29;20067;-66
2022/03/12 01:43:53;;;;;;;21.53;11.97;;;;;;;-145.18;100.00;47322.63;4911178;29;20271;-66
2022/03/12 01:46:27;;;;;;;24.03;12.73;;;;;;;-145.18;98.92;47320.69;4911485;29;20616;-66
2022/03/12 01:48:52;;;;;;;24.90;12.97;;;;;;;-145.18;98.55;47316.78;4911705;29;20286;-66
2022/03/12 01:51:18;;;;;;;25.23;13.10;;;;;;;-145.18;98.52;47326.53;4911237;29;20365;-66
2022/03/12 01:53:44;;;;;;;20.70;12.50;;;;;;;-145.18;99.35;47322.63;4911221;29;20051;-66
2022/03/12 01:56:09;;;;;;;20.97;12.77;;;;;;;-145.18;99.61;47320.69;4910850;29;20073;-66
2022/03/12 01:58:35;;;;;;;19.97;11.47;;;;;;;-145.18;100.00;47314.81;4911306;29;20075;-66
2022/03/12 02:01:01;;;;;;;22.97;13.00;;;;;;;-145.18;100.00;47308.97;4911550;29;20046;-66
2022/03/12 02:03:29;;;;;;;23.97;11.93;;;;;;;-145.18;100.00;47332.41;4911262;29;20286;-66
2022/03/12 02:05:58;;;;;;;19.70;12.03;;;;;;;-145.18;100.00;47328.50;4910951;29;20287;-66
2022/03/12 02:08:24;;;;;;;19.30;11.90;;;;;;;-145.18;100.00;47326.53;4910864;29;20267;-66
2022/03/12 02:10:56;;;;;;;28.73;13.30;;;;;;;-145.18;100.00;47332.41;4910878;29;20259;-66
2022/03/12 02:13:21;;;;;;;21.33;12.70;;;;;;;-145.18;100.00;47328.50;4911289;29;20037;-66
2022/03/12 02:15:47;;;;;;;20.10;12.70;;;;;;;-145.18;100.00;47355.84;4911111;29;20279;-66
2022/03/12 02:18:13;;;;;;;23.87;11.53;;;;;;;-145.18;100.00;47332.41;4910898;29;20405;-66
2022/03/12 02:20:39;;;;;;;21.47;12.57;;;;;;;-145.18;100.00;47322.63;4911143;29;20047;-66
2022/03/12 02:23:08;;;;;;;21.13;13.23;;;;;;;-145.18;100.00;47322.63;4893991;29;20358;-66
2022/03/12 02:25:34;;;;;;;19.00;12.30;;;;;;;-145.18;100.00;47322.63;4911209;29;20044;-66
2022/03/12 02:28:03;;;;;;;23.03;13.40;;;;;;;-145.18;100.00;47320.69;4910296;29;20629;-66
2022/03/12 02:30:34;;;;;;;20.30;11.50;;;;;;;-145.18;100.00;47316.78;4910816;29;20287;-66
2022/03/12 02:33:04;;;;;;;22.83;12.67;;;;;;;-145.18;100.00;47336.31;4910545;29;20938;-66
2022/03/12 02:35:34;;;;;;;24.40;12.93;;;;;;;-145.18;100.00;47326.53;4910985;29;20295;-66
2022/03/12 02:38:00;;;;;;;23.57;12.53;;;;;;;-145.18;100.00;47330.44;4910156;29;20374;-66
2022/03/12 02:40:25;;;;;;;19.90;13.27;;;;;;;-145.18;100.00;47346.06;4894204;29;20279;-66
2022/03/12 02:42:54;;;;;;;26.70;13.13;;;;;;;-145.18;100.00;47336.31;4908735;29;20354;-66
2022/03/12 02:45:23;;;;;;;19.60;12.53;;;;;;;-145.18;100.00;47328.50;4910982;29;20119;-66
2022/03/12 02:47:49;;;;;;;22.57;11.87;;;;;;;-145.18;100.00;47351.94;4910157;29;20295;-66
2022/03/12 02:50:15;;;;;;;19.80;12.30;;;;;;;-145.18;100.00;47305.06;4911363;29;20699;-66
2022/03/12 02:52:42;;;;;;;27.67;14.07;;;;;;;-145.18;100.00;47340.22;4910451;29;20267;-66
2022/03/12 02:55:13;;;;;;;25.93;13.27;;;;;;;-145.18;100.00;47338.25;4910855;29;20056;-66
2022/03/12 02:57:40;;;;;;;22.10;12.83;;;;;;;-145.18;100.00;47353.88;4910368;29;20287;-66
2022/03/12 03:00:08;;;;;;;21.67;13.40;;;;;;;-145.18;100.00;47346.06;4910356;29;20282;-66
2022/03/12 03:02:54;;;;;;;26.33;14.32;;;;;;;-145.18;100.00;47342.16;5142522;23;20323;-67
2022/03/12 03:05:33;;;;;;;20.53;12.90;;;;;;;-145.18;100.00;47357.78;4947740;28;20086;-67
2022/03/12 03:08:03;;;;;;;22.10;13.00;;;;;;;-145.18;100.00;47357.78;4951539;28;20331;-67
2022/03/12 03:10:40;;;;;;;23.60;12.07;;;;;;;-145.18;100.00;47349.97;4935039;28;20269;-67
2022/03/12 03:13:16;;;;;;;27.50;13.70;;;;;;;-145.18;100.00;47357.78;4951484;28;20288;-67
2022/03/12 03:16:00;;;;;;;21.37;13.70;;;;;;;-145.18;100.00;47355.84;4952217;28;20642;-67
2022/03/12 03:18:29;;;;;;;23.50;14.07;;;;;;;-145.18;100.00;47336.31;4951890;28;20630;-67
2022/03/12 03:20:56;;;;;;;24.17;13.90;;;;;;;-145.18;100.00;47349.97;4952153;28;20619;-67
2022/03/12 03:23:23;;;;;;;22.77;12.90;;;;;;;-145.18;100.00;47348.03;4951865;28;20278;-67
2022/03/12 03:25:48;;;;;;;22.30;13.60;;;;;;;-145.18;100.00;47348.03;4951769;28;20274;-67
2022/03/12 03:28:14;;;;;;;26.33;13.47;;;;;;;-145.18;100.00;47344.13;4952190;28;20769;-67
2022/03/12 03:30:41;;;;;;;22.30;12.90;;;;;;;-145.18;100.00;47359.75;4935064;28;20126;-67
2022/03/12 03:33:15;;;;;;;21.80;13.40;;;;;;;-145.18;100.00;47357.78;4951818;28;20042;-67
2022/03/12 03:35:40;;;;;;;24.13;12.87;;;;;;;-145.18;100.00;47349.97;4952011;28;20289;-67
2022/03/12 03:38:11;;;;;;;20.87;12.60;;;;;;;-145.18;100.00;47334.34;4951733;28;20312;-67
2022/03/12 03:40:37;;;;;;;19.37;12.13;;;;;;;-145.18;100.00;47359.75;4951819;28;20035;-67
2022/03/12 03:43:15;;;;;;;21.03;12.40;;;;;;;-145.18;100.00;47359.75;4951940;28;20332;-67
2022/03/12 03:45:44;;;;;;;23.00;13.03;;;;;;;-145.18;100.00;47349.97;4952154;28;20301;-67
2022/03/12 03:48:13;;;;;;;20.10;13.03;;;;;;;-145.18;100.00;47349.97;4951523;28;20286;-67
2022/03/12 03:50:39;;;;;;;23.50;13.07;;;;;;;-145.18;100.00;47346.06;4952017;28;20292;-67
2022/03/12 03:53:05;;;;;;;26.37;13.33;;;;;;;-145.18;100.00;47363.66;4951142;28;20277;-67
2022/03/12 03:55:32;;;;;;;20.20;12.97;;;;;;;-145.18;100.00;47365.63;4951973;28;20262;-67
2022/03/12 03:57:58;;;;;;;23.37;12.93;;;;;;;-145.18;100.00;47363.66;4951214;28;20047;-67
2022/03/12 04:00:24;;;;;;;24.40;12.53;;;;;;;-145.18;100.00;47377.34;4951462;28;20332;-67
2022/03/12 04:03:02;;;;;;;20.70;12.63;;;;;;;-145.18;100.00;47369.53;4968446;28;20324;-67
2022/03/12 04:05:34;;;;;;;18.00;12.30;;;;;;;-145.18;100.00;47394.91;4970880;28;20344;-67
2022/03/12 04:08:00;;;;;;;21.17;12.57;;;;;;;-145.18;100.00;47408.59;4970430;28;20356;-67
2022/03/12 04:10:26;;;;;;;19.13;11.67;;;;;;;-145.18;100.00;47392.97;4970614;28;20359;-67
2022/03/12 04:12:51;;;;;;;21.50;11.97;;;;;;;-145.18;100.00;47406.63;4970140;28;20277;-67
2022/03/12 04:15:17;;;;;;;25.57;11.50;;;;;;;-145.18;100.00;47410.56;4970913;28;20276;-67
2022/03/12 04:17:44;;;;;;;18.07;11.13;;;;;;;-145.18;100.00;47422.28;4968928;28;20034;-67
2022/03/12 04:20:13;;;;;;;15.57;10.63;;;;;;;-145.18;100.00;47394.91;4970285;28;20042;-67
2022/03/12 04:22:38;;;;;;;16.47;10.70;;;;;;;-145.18;100.00;47406.63;4970470;28;20359;-67
2022/03/12 04:25:04;;;;;;;21.83;11.10;;;;;;;-145.18;100.00;47439.84;4970807;28;20364;-67
2022/03/12 04:27:30;;;;;;;18.23;10.73;;;;;;;-145.18;100.00;47416.41;4970208;28;20132;-67
2022/03/12 04:29:56;;;;;;;15.87;9.93;;;;;;;-145.18;100.00;47418.38;4970321;28;20320;-67
2022/03/12 04:32:21;;;;;;;17.23;9.87;;;;;;;-145.18;100.00;47426.19;4970453;28;20054;-67
2022/03/12 04:34:46;;;;;;;15.83;9.47;;;;;;;-145.18;100.00;47422.28;4969613;28;20518;-67
2022/03/12 04:37:12;;;;;;;17.57;9.63;;;;;;;-145.18;100.00;47445.72;4969994;28;20039;-67
2022/03/12 04:39:39;;;;;;;14.07;9.40;;;;;;;-145.18;100.00;47455.47;4971128;28;20034;-67
2022/03/12 04:42:05;;;;;;;18.23;10.67;;;;;;;-145.18;100.00;47437.91;4969606;28;20039;-67
2022/03/12 04:44:30;;;;;;;17.73;9.43;;;;;;;-145.18;100.00;47473.06;4970272;28;20783;-67
2022/03/12 04:46:55;;;;;;;15.83;9.47;;;;;;;-145.18;100.00;47367.56;4969786;28;20051;-67
2022/03/12 04:49:21;;;;;;;14.27;9.37;;;;;;;-145.18;100.00;47080.38;4969751;28;20491;-67
2022/03/12 04:51:46;;;;;;;13.73;9.17;;;;;;;-145.18;100.00;46851.81;4952729;28;20049;-67
2022/03/12 04:54:12;;;;;;;12.00;7.90;;;;;;;-145.18;100.00;46740.47;4970616;28;20117;-68
2022/03/12 04:56:37;;;;;;;12.90;8.40;;;;;;;-145.18;100.00;46689.69;4952633;28;20054;-67
2022/03/12 04:59:03;;;;;;;12.93;7.77;;;;;;;-145.18;100.00;46642.81;4969289;28;20089;-68
2022/03/12 05:01:28;;;;;;;10.50;7.03;;;;;;;-145.18;100.00;46615.47;4970001;28;20051;-68
2022/03/12 05:03:54;;;;;;;11.50;6.30;;;;;;;-145.18;100.00;46584.22;4968790;28;20054;-68
2022/03/12 05:06:23;;;;;;;10.43;6.70;;;;;;;-145.18;100.00;46572.50;4970017;28;20109;-67
2022/03/12 05:08:49;;;;;;;11.00;6.13;;;;;;;-145.18;100.00;46566.63;4952569;28;20046;-67
2022/03/12 05:11:14;;;;;;;8.40;6.03;;;;;;;-145.18;100.00;46566.63;4970130;28;20276;-67
2022/03/12 05:13:40;;;;;;;10.80;6.07;;;;;;;-145.18;100.00;46562.72;4969699;28;20054;-67
2022/03/12 05:16:06;;;;;;;9.00;5.87;;;;;;;-145.18;100.00;46570.53;4969238;28;20043;-67
2022/03/12 05:18:33;;;;;;;8.47;5.93;;;;;;;-145.18;100.00;46554.91;4968962;28;20057;-67
2022/03/12 05:21:00;;;;;;;9.93;6.03;;;;;;;-145.18;100.00;46552.97;4969561;28;20280;-67
2022/03/12 05:23:26;;;;;;;8.57;5.30;;;;;;;-145.18;100.00;46551.00;4968979;28;20371;-67
2022/03/12 05:25:52;;;;;;;9.30;5.47;;;;;;;-145.18;100.00;46549.06;4969705;28;20276;-67
2022/03/12 05:28:22;;;;;;;7.57;5.93;;;;;;;-145.18;100.00;46547.09;4969063;28;20324;-68
2022/03/12 05:30:49;;;;;;;10.13;5.63;;;;;;;-145.18;100.00;46549.06;4968969;28;20121;-67
2022/03/12 05:33:16;;;;;;;8.63;5.87;;;;;;;-145.18;100.00;46551.00;4968700;28;20303;-67
2022/03/12 05:35:43;;;;;;;11.10;6.03;;;;;;;-145.18;100.00;46547.09;4968965;28;20284;-67
2022/03/12 05:38:11;;;;;;;9.33;5.70;;;;;;;-145.18;100.00;46547.09;4968948;28;20836;-67
2022/03/12 05:40:39;;;;;;;9.73;6.67;;;;;;;-145.18;100.00;46547.09;4966865;28;20368;-67
2022/03/12 05:43:11;;;;;;;8.57;5.90;;;;;;;-145.18;100.00;46545.16;4958414;28;20277;-67
2022/03/12 05:45:37;;;;;;;11.60;6.80;;;;;;;-145.18;100.00;46549.06;4959011;28;20277;-67
2022/03/12 05:48:04;;;;;;;9.37;6.73;;;;;;;-145.18;100.00;46545.16;4957027;28;20420;-67
2022/03/12 05:50:30;;;;;;;11.73;7.73;;;;;;;-145.18;100.00;46549.06;4949857;28;20836;-67
2022/03/12 05:52:55;;;;;;;14.17;7.43;;;;;;;-145.18;100.00;46541.25;4949979;28;20265;-67
2022/03/12 05:55:23;;;;;;;10.87;6.20;;;;;;;-145.18;100.00;46547.09;4949723;28;20051;-67
2022/03/12 05:57:49;;;;;;;11.80;6.33;;;;;;;-145.18;100.00;46545.16;4948635;28;20054;-67
2022/03/12 06:00:16;;;;;;;9.27;6.50;;;;;;;-145.18;100.00;46545.16;4949714;28;20269;-67
2022/03/12 06:02:51;;;;;;;10.27;6.67;;;;;;;-145.18;100.00;46545.16;4949863;28;20289;-67
2022/03/12 06:05:21;;;;;;;9.80;6.53;;;;;;;-145.18;100.00;46547.09;4958823;28;20277;-68
2022/03/12 06:07:49;;;;;;;9.60;6.50;;;;;;;-145.18;100.00;46535.38;4956250;28;20273;-68
2022/03/12 06:10:28;;;;;;;8.43;5.87;;;;;;;-145.18;100.00;46551.00;4957830;28;20596;-68
2022/03/12 06:12:56;;;;;;;11.40;6.97;;;;;;;-145.18;100.00;46543.19;4950819;28;20285;-67
2022/03/12 06:15:23;;;;;;;9.83;6.43;;;;;;;-145.18;100.00;46541.25;4949700;28;20285;-68
2022/03/12 06:17:49;;;;;;;9.33;6.23;;;;;;;-145.18;100.00;46545.16;4954052;28;20285;-67
2022/03/12 06:20:23;;;;;;;9.97;6.23;;;;;;;-145.18;100.00;46547.09;4962747;28;20654;-68
2022/03/12 06:22:51;;;;;;;10.07;6.23;;;;;;;-145.18;100.00;46547.09;4957942;28;20308;-67
2022/03/12 06:25:17;;;;;;;7.77;5.83;;;;;;;-145.18;100.00;46541.25;4940770;28;20293;-67
2022/03/12 06:27:45;;;;;;;11.37;6.13;;;;;;;-145.18;100.00;46547.09;4958821;28;20384;-67
2022/03/12 06:30:12;;;;;;;9.90;5.80;;;;;;;-145.18;100.00;46545.16;4957748;28;20715;-67
2022/03/12 06:32:39;;;;;;;9.50;5.87;;;;;;;-145.18;100.00;46549.06;4955083;28;20951;-67
2022/03/12 06:35:06;;;;;;;10.43;6.00;;;;;;;-145.18;100.00;46547.09;4948880;28;21010;-67
2022/03/12 06:37:31;;;;;;;10.57;5.77;;;;;;;-145.18;100.00;46551.00;4940408;28;20416;-67
2022/03/12 06:39:58;;;;;;;10.20;6.20;;;;;;;-145.18;100.00;46547.09;4948925;28;20293;-67
2022/03/12 06:42:27;;;;;;;10.20;6.13;;;;;;;-145.18;100.00;46543.19;4934373;28;20047;-67
2022/03/12 06:44:54;;;;;;;12.30;6.30;;;;;;;-145.18;100.00;46535.38;4966098;28;20311;-67
2022/03/12 06:47:20;;;;;;;9.07;6.00;;;;;;;-145.18;100.00;46545.16;4970950;28;20847;-67
2022/03/12 06:49:45;;;;;;;11.67;6.20;;;;;;;-145.18;100.00;46539.28;4971652;28;20263;-67
2022/03/12 06:52:11;;;;;;;8.97;5.80;;;;;;;-145.18;100.00;46539.28;4973134;28;20034;-67
2022/03/12 06:54:36;;;;;;;8.47;5.60;;;;;;;-145.18;100.00;46539.28;4971998;28;20050;-67
2022/03/12 06:57:04;;;;;;;11.17;5.63;;;;;;;-145.18;100.00;46535.38;4952396;28;20039;-67
2022/03/12 06:59:30;;;;;;;10.13;5.93;;;;;;;-145.18;100.00;46537.34;4935542;28;20123;-67
2022/03/12 07:01:55;;;;;;;12.37;5.77;;;;;;;-145.18;100.00;46541.25;4952567;28;20397;-67
2022/03/12 07:04:21;;;;;;;7.60;4.87;;;;;;;-145.18;100.00;46539.28;4952624;28;20055;-67
2022/03/12 07:06:48;;;;;;;8.60;5.40;;;;;;;-145.18;100.00;46533.44;4953299;28;20118;-67
2022/03/12 07:09:14;;;;;;;15.73;6.13;;;;;;;-145.18;100.00;46533.44;4952248;28;20075;-67
2022/03/12 07:11:39;;;;;;;10.60;5.40;;;;;;;-145.18;100.00;46539.28;4952581;28;20277;-67
2022/03/12 07:14:05;;;;;;;7.77;4.97;;;;;;;-145.18;100.00;46539.28;4951987;28;20043;-68
2022/03/12 07:16:31;;;;;;;11.10;5.60;;;;;;;-145.18;100.00;46535.38;4952925;28;20459;-67
2022/03/12 07:18:56;;;;;;;8.93;5.03;;;;;;;-145.18;100.00;46547.09;4951561;28;20043;-67
2022/03/12 07:21:23;;;;;;;10.27;5.07;;;;;;;-145.18;100.00;46541.25;4953372;28;20043;-67
2022/03/12 07:23:48;;;;;;;10.50;5.37;;;;;;;-145.18;100.00;46549.06;4934524;28;20681;-67
2022/03/12 07:26:14;;;;;;;10.30;5.40;;;;;;;-145.18;100.00;46547.09;4958045;28;20282;-67
2022/03/12 07:28:39;;;;;;;9.33;5.03;;;;;;;-145.18;100.00;46551.00;4940374;28;20063;-67
2022/03/12 07:31:05;;;;;;;10.33;5.43;;;;;;;-145.18;100.00;46539.28;4951732;28;20039;-67
2022/03/12 07:33:30;;;;;;;15.50;7.30;;;;;;;-145.18;100.00;46547.09;4941818;28;20043;-67
2022/03/12 07:35:56;;;;;;;7.83;5.10;;;;;;;-145.18;100.00;46543.19;4952411;28;20044;-66
2022/03/12 07:38:21;;;;;;;10.47;5.33;;;;;;;-145.18;100.00;46549.06;4968605;28;20101;-66
2022/03/12 07:40:47;;;;;;;8.77;5.60;;;;;;;-145.18;100.00;46554.91;4971087;28;20117;-66
2022/03/12 07:43:12;;;;;;;7.07;4.97;;;;;;;-145.18;100.00;46547.09;4953124;28;20050;-66
2022/03/12 07:45:37;;;;;;;10.50;6.20;;;;;;;-145.18;100.00;46551.00;4967757;28;20051;-66
2022/03/12 07:48:04;;;;;;;13.10;6.17;;;;;;;-145.18;100.00;46547.09;4961766;28;20460;-66
2022/03/12 07:50:30;;;;;;;11.07;5.97;;;;;;;-145.18;100.00;46554.91;4953490;28;20043;-67
2022/03/12 07:52:56;;;;;;;16.13;6.60;;;;;;;-145.18;100.00;46551.00;4960477;28;20803;-67
2022/03/12 07:55:22;;;;;;;11.23;6.40;;;;;;;-145.18;100.00;46552.97;4951617;28;20566;-67
2022/03/12 07:57:48;;;;;;;11.43;6.40;;;;;;;-145.18;100.00;46558.81;4951089;28;20284;-67
2022/03/12 08:00:15;;;;;;;13.07;6.40;;;;;;;-145.18;100.00;46562.72;4954922;28;20288;-67
2022/03/12 08:02:46;;;;;;;12.63;6.73;;;;;;;-145.18;100.00;46551.00;4957730;28;20042;-67
2022/03/12 08:05:16;;;;;;;11.00;7.00;;;;;;;-145.18;100.00;46551.00;4970954;28;20300;-67
2022/03/12 08:07:41;;;;;;;13.43;6.60;;;;;;;-145.18;100.00;46552.97;4964381;28;20284;-67
2022/03/12 08:10:08;;;;;;;11.23;6.60;;;;;;;-145.18;100.00;46556.88;4951269;28;20274;-67
2022/03/12 08:12:35;;;;;;;12.63;6.77;;;;;;;-145.18;100.00;46554.91;4952129;28;20519;-67
2022/03/12 08:15:03;;;;;;;9.57;6.50;;;;;;;-145.18;100.00;46551.00;4950875;28;20369;-68
2022/03/12 08:17:30;;;;;;;10.53;6.97;;;;;;;-145.18;100.00;46568.59;4967336;28;20277;-68
2022/03/12 08:19:55;;;;;;;10.50;6.50;;;;;;;-145.18;100.00;46570.53;4969880;28;20686;-68
2022/03/12 08:22:21;;;;;;;14.63;6.83;;;;;;;-145.18;100.00;46558.81;4953314;28;20312;-67
2022/03/12 08:24:46;;;;;;;10.10;7.27;;;;;;;-145.18;100.00;46590.06;4969826;28;20066;-68
2022/03/12 08:27:14;;;;;;;14.07;6.50;;;;;;;-145.18;100.00;46597.88;4970561;28;20653;-68
2022/03/12 08:29:41;;;;;;;8.50;5.63;;;;;;;-145.18;100.00;46592.03;4969765;28;20063;-68
2022/03/12 08:32:08;;;;;;;10.57;5.70;;;;;;;-145.18;100.00;46613.50;4954294;28;20300;-68
2022/03/12 08:34:34;;;;;;;13.37;4.90;;;;;;;-145.18;100.00;46593.97;4933769;28;20269;-68
2022/03/12 08:37:00;;;;;;;9.00;4.07;;;;;;;-145.18;100.00;46621.31;4950631;28;20308;-68
2022/03/12 08:39:27;;;;;;;5.70;3.87;;;;;;;-145.18;100.00;46658.44;4954918;28;20281;-68
2022/03/12 08:41:53;;;;;;;9.60;4.67;;;;;;;-145.18;100.00;46640.88;4967206;28;20289;-68
2022/03/12 08:44:19;;;;;;;8.87;3.90;;;;;;;-145.18;100.00;46654.53;4969600;28;20268;-68
2022/03/12 08:46:46;;;;;;;11.40;4.87;;;;;;;-145.18;100.00;46631.09;4967988;28;20281;-68
2022/03/12 08:49:12;;;;;;;11.33;4.40;;;;;;;-145.18;100.00;46654.53;4934569;29;20050;-68
2022/03/12 08:51:38;;;;;;;8.87;4.83;;;;;;;-145.18;100.00;46646.72;4950728;28;20290;-68
2022/03/12 08:54:05;;;;;;;13.77;4.77;;;;;;;-145.18;100.00;46691.66;4950356;28;20277;-68
2022/03/12 08:56:31;;;;;;;11.20;4.10;;;;;;;-145.18;100.00;46699.47;4961526;28;20732;-68
2022/03/12 08:58:57;;;;;;;10.90;4.00;;;;;;;-145.18;100.00;46660.41;4968940;28;20283;-67
2022/03/12 09:01:23;;;;;;;7.97;3.63;;;;;;;-145.18;100.00;46822.53;4966654;28;20404;-68
2022/03/12 09:03:49;;;;;;;14.73;4.00;;;;;;;-145.18;100.00;46861.59;4968301;28;20280;-67
2022/03/12 09:06:16;;;;;;;7.03;3.47;;;;;;;-145.18;100.00;46967.09;4970096;28;20430;-67
2022/03/12 09:08:42;;;;;;;9.23;3.90;;;;;;;-145.18;100.00;46967.09;4968787;28;20118;-67
2022/03/12 09:11:08;;;;;;;8.37;4.00;;;;;;;-145.18;100.00;47101.88;4969805;28;20277;-67
2022/03/12 09:13:33;;;;;;;10.00;3.43;;;;;;;-145.18;100.00;47240.56;4967151;28;20656;-67
2022/03/12 09:15:59;;;;;;;12.57;3.90;;;;;;;-145.18;100.00;47254.25;4961540;28;20479;-67
2022/03/12 09:18:25;;;;;;;8.17;3.50;;;;;;;-145.18;100.00;47121.41;4950026;28;20047;-67
2022/03/12 09:20:51;;;;;;;7.00;2.97;;;;;;;-145.18;100.00;47308.97;4964288;28;20479;-67
2022/03/12 09:23:19;;;;;;;11.93;4.10;;;;;;;-145.18;100.00;47297.22;4953347;28;20067;-67
2022/03/12 09:25:49;;;;;;;10.63;3.50;;;;;;;-145.18;100.00;47287.47;4949883;28;20333;-67
2022/03/12 09:28:16;;;;;;;10.30;3.10;;;;;;;-145.18;100.00;47332.41;4949896;28;20293;-67
2022/03/12 09:30:42;;;;;;;6.50;3.63;;;;;;;-145.18;100.00;47342.16;4949668;28;20305;-67
2022/03/12 09:33:08;;;;;;;6.93;2.80;;;;;;;-145.18;100.00;47344.13;4949750;28;20816;-67
2022/03/12 09:35:34;;;;;;;7.63;2.70;;;;;;;-145.18;100.00;47324.59;4950056;28;20278;-67
2022/03/12 09:38:02;;;;;;;8.40;3.07;;;;;;;-145.18;100.00;47324.59;4964618;28;20292;-67
2022/03/12 09:40:29;;;;;;;6.77;3.00;;;;;;;-145.18;100.00;47297.22;4969082;28;20113;-67
2022/03/12 09:42:54;;;;;;;7.80;2.83;;;;;;;-145.18;100.00;47308.97;4969187;28;21083;-67
2022/03/12 09:45:22;;;;;;;7.60;2.83;;;;;;;-145.18;100.00;47340.22;4968582;28;20311;-67
2022/03/12 09:47:48;;;;;;;11.93;2.50;;;;;;;-145.18;100.00;47318.72;4949527;28;20036;-67
2022/03/12 09:50:14;;;;;;;5.90;2.83;;;;;;;-145.18;100.00;47289.41;4949221;28;20349;-67
2022/03/12 09:52:40;;;;;;;11.40;3.53;;;;;;;-145.18;100.00;47297.22;4950054;28;20313;-67
2022/03/12 09:55:06;;;;;;;10.77;2.47;;;;;;;-145.18;100.00;47291.38;4964499;28;20272;-67
2022/03/12 09:57:32;;;;;;;8.40;2.87;;;;;;;-145.18;100.00;47258.16;4959927;28;20316;-66
2022/03/12 09:59:58;;;;;;;8.23;3.10;;;;;;;-145.18;100.00;47269.88;4947778;28;20049;-67
2022/03/12 10:02:23;;;;;;;10.37;2.70;;;;;;;-145.18;100.00;47267.94;4948831;28;20313;-66
2022/03/12 10:04:49;;;;;;;7.40;2.30;;;;;;;-145.18;100.00;47246.44;4948525;28;20036;-66
2022/03/12 10:07:14;;;;;;;16.10;2.77;;;;;;;-145.18;100.00;47256.22;4948811;28;20031;-67
2022/03/12 10:09:41;;;;;;;8.73;2.40;;;;;;;-145.18;100.00;47232.75;4948867;28;20047;-67
2022/03/12 10:12:07;;;;;;;6.30;3.17;;;;;;;-145.18;100.00;47207.38;4931967;28;20142;-67
2022/03/12 10:14:32;;;;;;;7.77;2.43;;;;;;;-145.18;100.00;47226.91;4949383;28;20289;-67
2022/03/12 10:17:02;;;;;;;4.60;2.70;;;;;;;-145.18;100.00;47213.22;4948747;28;20360;-67
2022/03/12 10:19:30;;;;;;;9.93;2.70;;;;;;;-145.18;100.00;47215.19;4948431;28;20086;-67
2022/03/12 10:21:56;;;;;;;6.10;2.40;;;;;;;-145.18;100.00;47203.47;4949024;28;20277;-67
2022/03/12 10:24:21;;;;;;;4.63;2.00;;;;;;;-145.18;100.00;47187.84;4948635;28;20325;-67
2022/03/12 10:26:47;;;;;;;8.00;2.83;;;;;;;-145.18;100.00;47199.56;4948198;28;20040;-67
2022/03/12 10:29:13;;;;;;;4.87;2.00;;;;;;;-145.18;100.00;47228.84;4948517;28;20492;-67
2022/03/12 10:31:39;;;;;;;8.23;2.40;;;;;;;-145.18;100.00;47207.38;4949073;28;20570;-67
2022/03/12 10:34:25;;;;;;;6.03;2.30;;;;;;;-145.18;100.00;47197.59;4948973;28;20273;-68
2022/03/12 10:36:52;;;;;;;;;;;;;;;-145.18;100.00;47234.72;4948948;28;20028;-67
2022/03/12 10:39:38;;;;;;;8.00;2.70;;;;;;;-145.18;100.00;47242.53;4947511;28;19927;-68
2022/03/12 10:42:07;;;;;;;9.30;2.47;;;;;;;-145.18;100.00;47226.91;4947971;28;20266;-67
2022/03/12 10:44:36;;;;;;;11.23;2.27;;;;;;;-145.18;100.00;47219.09;4948145;28;20273;-67
2022/03/12 10:47:02;;;;;;;8.50;3.23;;;;;;;-145.18;100.00;47189.78;4931099;28;20281;-68
2022/03/12 10:49:28;;;;;;;7.97;2.67;;;;;;;-145.18;100.00;47223.00;4948099;28;20341;-67
2022/03/12 10:51:56;;;;;;;8.53;2.67;;;;;;;-145.18;100.00;47201.50;4947984;28;20341;-67
2022/03/12 10:54:22;;;;;;;11.77;2.90;;;;;;;-145.18;100.00;47195.66;4947915;28;20051;-67
2022/03/12 10:56:54;;;;;;;9.00;2.40;;;;;;;-145.18;100.00;47195.66;4948022;28;20285;-67
2022/03/12 10:59:29;;;;;;;6.53;2.30;;;;;;;-145.18;100.00;47185.88;4947659;28;20357;-68
2022/03/12 11:01:57;;;;;;;6.27;2.10;;;;;;;-145.18;100.00;47174.16;4948018;28;20290;-67